Time;durP1;ratioP1;P1;durP2;ratioP2;P2;SDS_P1;SDS_P2;PMS_P1;PMS_P2;Temp;Humidity;BMP_temperature;BMP_pressure;BME280_temperature;BME280_humidity;BME280_pressure;Samples;Min_cycle;Max_cycle;Signal;HPM_P1;HPM_P2
2022/07/18 00:01:59;;;;;;;2.27;0.93;;;21.90;46.30;;;;;;5014657;28;20573;-76
2022/07/18 00:04:26;;;;;;;3.40;1.10;;;21.90;46.50;;;;;;5014221;28;20631;-77
2022/07/18 00:06:52;;;;;;;4.23;1.53;;;21.90;46.60;;;;;;4997193;28;21060;-77
2022/07/18 00:09:19;;;;;;;4.33;1.17;;;21.90;46.60;;;;;;5014963;28;21109;-77
2022/07/18 00:11:45;;;;;;;4.80;1.33;;;21.90;46.70;;;;;;5014769;28;20684;-77
2022/07/18 00:14:12;;;;;;;2.50;0.90;;;21.80;46.70;;;;;;4996936;28;20597;-76
2022/07/18 00:16:38;;;;;;;2.20;0.90;;;21.80;46.90;;;;;;5015262;28;20574;-76
2022/07/18 00:19:05;;;;;;;3.07;1.00;;;21.80;47.00;;;;;;4999890;28;20579;-77
2022/07/18 00:21:32;;;;;;;3.53;1.10;;;21.70;47.00;;;;;;5014367;28;21022;-76
2022/07/18 00:23:58;;;;;;;2.07;1.20;;;21.70;47.10;;;;;;5014609;28;20601;-77
2022/07/18 00:26:24;;;;;;;1.77;0.90;;;21.60;47.20;;;;;;5014529;28;20574;-77
2022/07/18 00:28:50;;;;;;;2.00;1.10;;;21.60;47.30;;;;;;4997285;28;20171;-76
2022/07/18 00:31:16;;;;;;;2.70;1.23;;;21.60;47.40;;;;;;5014400;28;20605;-76
2022/07/18 00:33:41;;;;;;;5.60;1.00;;;21.60;47.60;;;;;;4996152;28;20302;-77
2022/07/18 00:36:07;;;;;;;1.77;0.90;;;21.50;47.60;;;;;;5013784;28;21227;-77
2022/07/18 00:38:33;;;;;;;6.47;1.73;;;21.50;47.90;;;;;;5014052;28;20541;-77
2022/07/18 00:40:59;;;;;;;1.97;1.10;;;21.50;47.90;;;;;;5013336;28;20581;-77
2022/07/18 00:43:25;;;;;;;2.67;1.00;;;21.50;47.90;;;;;;4996272;28;20584;-76
2022/07/18 00:45:52;;;;;;;2.47;1.20;;;21.40;48.00;;;;;;5012772;28;20572;-76
2022/07/18 00:48:19;;;;;;;1.83;0.83;;;21.40;48.00;;;;;;4996676;28;20285;-76
2022/07/18 00:50:45;;;;;;;2.40;0.90;;;21.40;48.10;;;;;;4980172;28;20577;-76
2022/07/18 00:53:11;;;;;;;2.20;1.03;;;21.40;48.50;;;;;;5014397;28;20711;-77
2022/07/18 00:55:39;;;;;;;2.93;0.80;;;21.40;48.20;;;;;;4998219;28;20628;-76
2022/07/18 00:58:05;;;;;;;2.70;0.80;;;21.40;48.40;;;;;;4996809;28;20581;-76
2022/07/18 01:03:15;;;;;;;3.00;0.80;;;21.40;48.50;;;;;;5013891;28;20573;-76
2022/07/18 01:05:41;;;;;;;2.40;1.20;;;21.40;48.50;;;;;;4996123;28;20613;-76
2022/07/18 01:08:07;;;;;;;2.73;0.90;;;21.40;48.50;;;;;;4996547;28;20170;-76
2022/07/18 01:10:32;;;;;;;2.47;1.20;;;21.40;48.50;;;;;;4996202;28;20257;-76
2022/07/18 01:12:58;;;;;;;2.23;1.00;;;21.40;48.80;;;;;;5013858;28;20570;-76
2022/07/18 01:15:24;;;;;;;3.47;1.27;;;21.40;48.80;;;;;;4984850;28;20297;-76
2022/07/18 01:17:50;;;;;;;16.60;1.97;;;21.30;48.70;;;;;;5017065;28;20175;-76
2022/07/18 01:20:15;;;;;;;1.97;0.90;;;21.30;48.80;;;;;;5016965;28;20170;-77
2022/07/18 01:22:42;;;;;;;2.20;0.90;;;21.30;48.80;;;;;;4995380;28;20833;-77
2022/07/18 01:25:09;;;;;;;1.87;1.00;;;21.30;49.00;;;;;;5012817;28;20609;-76
2022/07/18 01:27:35;;;;;;;3.57;0.80;;;21.30;49.00;;;;;;5013125;28;20581;-77
2022/07/18 01:30:01;;;;;;;2.83;0.80;;;21.30;48.80;;;;;;4995368;28;20569;-76
2022/07/18 01:32:27;;;;;;;2.63;1.00;;;21.30;48.80;;;;;;5015346;28;20568;-76
2022/07/18 01:34:52;;;;;;;3.50;0.80;;;21.30;48.80;;;;;;5012561;28;20198;-77
2022/07/18 01:37:18;;;;;;;1.73;0.60;;;21.30;48.80;;;;;;4995579;28;20581;-77
2022/07/18 01:39:46;;;;;;;3.00;1.00;;;21.30;48.80;;;;;;5012830;28;20666;-77
2022/07/18 01:42:12;;;;;;;1.93;0.70;;;21.30;48.80;;;;;;5012979;28;20992;-76
2022/07/18 01:44:38;;;;;;;1.70;0.67;;;21.30;48.70;;;;;;5012288;28;20640;-76
2022/07/18 01:47:07;;;;;;;1.63;1.03;;;21.30;48.60;;;;;;4995014;28;20636;-77
2022/07/18 01:49:33;;;;;;;2.17;0.70;;;21.40;48.80;;;;;;4995151;28;20573;-76
2022/07/18 01:52:00;;;;;;;1.67;0.70;;;21.30;48.70;;;;;;4994999;28;20581;-76
2022/07/18 01:54:32;;;;;;;1.97;0.70;;;21.40;48.80;;;;;;5012051;28;20633;-78
2022/07/18 01:57:00;;;;;;;2.67;0.80;;;21.40;48.80;;;;;;5012545;28;20562;-77
2022/07/18 01:59:27;;;;;;;1.80;0.70;;;21.30;48.70;;;;;;5012672;28;20878;-76
2022/07/18 02:01:52;;;;;;;1.80;0.77;;;21.30;48.80;;;;;;5012068;28;20664;-76
2022/07/18 02:04:18;;;;;;;4.90;1.83;;;21.30;48.80;;;;;;4994317;28;21366;-76
2022/07/18 02:06:44;;;;;;;2.53;0.70;;;21.30;48.90;;;;;;5012685;28;20518;-76
2022/07/18 02:09:10;;;;;;;1.87;0.70;;;21.20;49.20;;;;;;5015413;28;20604;-77
2022/07/18 02:11:37;;;;;;;1.40;0.60;;;21.20;49.10;;;;;;5012215;28;20562;-77
2022/07/18 02:14:04;;;;;;;2.07;0.70;;;21.20;49.20;;;;;;5012088;28;20608;-77
2022/07/18 02:16:31;;;;;;;3.37;1.00;;;21.20;49.30;;;;;;4994669;28;20617;-76
2022/07/18 02:18:57;;;;;;;1.83;0.70;;;21.20;49.40;;;;;;5013013;28;20649;-77
2022/07/18 02:21:23;;;;;;;2.83;0.80;;;21.10;49.30;;;;;;5011935;28;20565;-77
2022/07/18 02:23:50;;;;;;;2.50;0.80;;;21.10;49.50;;;;;;5012075;28;20608;-76
2022/07/18 02:26:17;;;;;;;2.20;0.60;;;21.10;49.70;;;;;;4977945;28;20633;-76
2022/07/18 02:28:43;;;;;;;1.57;0.80;;;21.10;49.70;;;;;;4994374;28;20601;-77
2022/07/18 02:31:08;;;;;;;1.87;0.70;;;21.00;49.90;;;;;;5012079;28;20604;-76
2022/07/18 02:33:34;;;;;;;2.63;0.70;;;21.00;50.00;;;;;;4994470;28;20573;-77
2022/07/18 02:36:00;;;;;;;3.50;0.90;;;21.00;50.00;;;;;;5011775;28;20206;-76
2022/07/18 02:38:26;;;;;;;2.77;1.37;;;21.00;50.10;;;;;;5012293;28;20573;-76
2022/07/18 02:40:52;;;;;;;1.93;0.77;;;20.90;50.10;;;;;;5011994;28;20616;-77
2022/07/18 02:43:18;;;;;;;3.20;1.10;;;21.00;50.20;;;;;;4994728;28;20576;-77
2022/07/18 02:45:44;;;;;;;1.60;0.80;;;20.90;50.20;;;;;;4996402;28;20584;-76
2022/07/18 02:48:10;;;;;;;2.23;0.80;;;20.90;50.30;;;;;;5012656;28;20573;-77
2022/07/18 02:50:36;;;;;;;1.80;0.80;;;20.90;50.60;;;;;;4977945;28;20564;-77
2022/07/18 02:53:01;;;;;;;2.13;0.70;;;20.80;50.60;;;;;;4994542;28;20181;-76
2022/07/18 02:55:27;;;;;;;2.17;0.70;;;20.80;50.80;;;;;;5011300;28;20635;-76
2022/07/18 02:57:53;;;;;;;2.03;1.00;;;20.70;50.80;;;;;;5011682;28;20667;-76
2022/07/18 03:00:19;;;;;;;2.77;0.90;;;20.70;51.10;;;;;;4994059;28;20197;-76
2022/07/18 03:02:45;;;;;;;1.50;0.70;;;20.70;51.50;;;;;;4977847;28;20170;-76
2022/07/18 03:05:12;;;;;;;3.27;0.80;;;20.60;51.20;;;;;;5011269;28;20210;-76
2022/07/18 03:07:38;;;;;;;4.00;0.80;;;20.50;51.90;;;;;;5011570;28;20578;-76
2022/07/18 03:10:05;;;;;;;1.60;0.90;;;20.50;51.90;;;;;;5013527;28;21239;-76
2022/07/18 03:12:31;;;;;;;2.73;0.73;;;20.50;51.60;;;;;;4997944;28;20572;-77
2022/07/18 03:14:57;;;;;;;1.53;0.90;;;20.50;51.60;;;;;;4997337;28;20636;-78
2022/07/18 03:17:23;;;;;;;1.97;0.80;;;20.40;52.10;;;;;;4997966;28;20569;-77
2022/07/18 03:19:48;;;;;;;2.43;0.87;;;20.40;51.90;;;;;;5015566;28;20166;-77
2022/07/18 03:22:14;;;;;;;2.40;0.80;;;20.40;52.00;;;;;;5018165;28;20661;-77
2022/07/18 03:24:40;;;;;;;2.77;1.10;;;20.40;52.20;;;;;;5014870;28;20193;-77
2022/07/18 03:27:05;;;;;;;1.97;0.77;;;20.30;52.50;;;;;;4997675;28;20179;-77
2022/07/18 03:29:31;;;;;;;2.40;0.80;;;20.30;52.10;;;;;;4998040;28;20209;-77
2022/07/18 03:31:57;;;;;;;2.50;0.80;;;20.30;52.20;;;;;;5015252;28;20178;-77
2022/07/18 03:34:23;;;;;;;4.83;1.80;;;20.30;52.30;;;;;;5013885;28;20190;-77
2022/07/18 03:36:48;;;;;;;1.80;0.80;;;20.20;52.40;;;;;;4997272;28;20186;-77
2022/07/18 03:39:14;;;;;;;1.80;0.90;;;20.20;52.50;;;;;;4997536;28;20174;-77
2022/07/18 03:41:40;;;;;;;1.90;0.60;;;20.20;52.70;;;;;;4997328;28;20173;-76
2022/07/18 03:44:06;;;;;;;2.53;1.00;;;20.10;52.70;;;;;;4997136;28;20203;-77
2022/07/18 03:46:32;;;;;;;3.30;0.90;;;20.10;52.90;;;;;;4997732;28;20178;-76
2022/07/18 03:48:58;;;;;;;6.60;1.30;;;20.10;53.00;;;;;;5015015;28;20618;-76
2022/07/18 03:51:24;;;;;;;2.13;0.80;;;20.00;53.00;;;;;;5014603;28;20562;-77
2022/07/18 03:53:50;;;;;;;1.60;0.70;;;20.00;53.20;;;;;;5014901;28;20197;-77
2022/07/18 03:56:16;;;;;;;2.37;0.80;;;20.00;53.60;;;;;;5015257;28;20611;-76
2022/07/18 03:58:43;;;;;;;2.43;0.80;;;20.00;53.40;;;;;;5018606;28;20565;-76
2022/07/18 04:01:09;;;;;;;1.80;0.80;;;20.00;53.60;;;;;;4997148;28;20567;-77
2022/07/18 04:03:35;;;;;;;1.90;0.80;;;20.00;53.80;;;;;;4996903;28;20669;-76
2022/07/18 04:06:01;;;;;;;2.40;0.90;;;20.00;53.90;;;;;;5014398;28;20573;-76
2022/07/18 04:08:27;;;;;;;1.73;0.90;;;20.00;54.30;;;;;;4997047;28;20635;-77
2022/07/18 04:10:53;;;;;;;3.13;1.10;;;20.00;54.60;;;;;;5014641;28;20163;-77
2022/07/18 04:13:19;;;;;;;2.30;0.90;;;20.00;54.50;;;;;;5015450;28;20190;-74
2022/07/18 04:15:44;;;;;;;1.40;0.77;;;20.00;54.90;;;;;;4996415;28;20623;-75
2022/07/18 04:18:10;;;;;;;1.70;0.70;;;20.00;54.80;;;;;;4997075;28;20573;-75
2022/07/18 04:20:38;;;;;;;1.93;0.90;;;20.00;54.80;;;;;;5014029;28;20535;-74
2022/07/18 04:23:06;;;;;;;3.53;0.83;;;20.00;55.40;;;;;;4997049;28;20170;-75
2022/07/18 04:25:40;;;;;;;1.50;0.70;;;20.10;55.60;;;;;;5014032;28;20607;-75
2022/07/18 04:28:08;;;;;;;2.20;0.90;;;20.10;55.30;;;;;;4996913;28;20621;-75
2022/07/18 04:30:35;;;;;;;1.87;0.80;;;20.10;55.50;;;;;;5013912;28;20779;-74
2022/07/18 04:33:05;;;;;;;1.70;0.80;;;20.10;55.50;;;;;;4980298;28;20623;-75
2022/07/18 04:35:32;;;;;;;2.50;0.80;;;20.10;55.70;;;;;;4998416;28;20678;-75
2022/07/18 04:37:58;;;;;;;2.43;0.90;;;20.10;55.70;;;;;;5014104;28;20562;-75
2022/07/18 04:40:24;;;;;;;1.80;0.80;;;20.10;55.90;;;;;;5013891;28;20558;-75
2022/07/18 04:42:50;;;;;;;3.00;1.03;;;20.10;56.30;;;;;;5014103;28;20565;-76
2022/07/18 04:45:18;;;;;;;3.27;0.90;;;20.10;56.00;;;;;;4979843;28;21184;-75
2022/07/18 04:47:43;;;;;;;1.83;0.90;;;20.20;56.10;;;;;;4996269;28;20213;-75
2022/07/18 04:50:10;;;;;;;2.47;0.70;;;20.20;56.20;;;;;;5013633;28;20657;-75
2022/07/18 04:52:41;;;;;;;3.57;0.80;;;20.20;56.00;;;;;;5014379;28;20176;-75
2022/07/18 04:55:08;;;;;;;2.07;0.87;;;20.20;56.20;;;;;;4995711;28;20656;-75
2022/07/18 04:57:34;;;;;;;1.93;0.70;;;20.20;56.10;;;;;;5013785;28;20612;-75
2022/07/18 05:00:03;;;;;;;1.33;0.60;;;20.40;56.30;;;;;;4979778;28;20577;-75
2022/07/18 05:02:28;;;;;;;1.77;0.70;;;20.50;56.60;;;;;;4995995;28;20194;-75
2022/07/18 05:04:54;;;;;;;1.70;0.70;;;20.60;56.90;;;;;;4995432;28;20675;-75
2022/07/18 05:07:20;;;;;;;2.60;0.80;;;20.70;56.50;;;;;;4996119;28;20228;-75
2022/07/18 05:09:46;;;;;;;1.93;0.87;;;20.80;56.60;;;;;;5013327;28;20177;-75
2022/07/18 05:12:11;;;;;;;1.97;0.80;;;20.80;56.30;;;;;;5014826;23;20230;-78
2022/07/18 05:14:37;;;;;;;1.80;1.00;;;20.90;56.20;;;;;;4975761;28;20591;-78
2022/07/18 05:17:03;;;;;;;2.57;0.80;;;20.90;56.10;;;;;;4972837;28;20595;-77
2022/07/18 05:19:29;;;;;;;2.23;0.70;;;20.90;56.60;;;;;;4972991;28;20181;-78
2022/07/18 05:21:55;;;;;;;2.50;0.90;;;20.90;56.00;;;;;;4977073;28;20202;-78
2022/07/18 05:24:20;;;;;;;1.80;0.70;;;21.00;56.10;;;;;;4993419;28;20589;-78
2022/07/18 05:26:46;;;;;;;3.50;1.00;;;21.00;56.10;;;;;;4993865;28;20617;-77
2022/07/18 05:29:12;;;;;;;2.70;0.80;;;21.10;56.00;;;;;;4976617;28;20210;-77
2022/07/18 05:31:42;;;;;;;2.50;0.93;;;21.10;55.90;;;;;;4992695;28;20970;-77
2022/07/18 05:34:08;;;;;;;1.70;0.80;;;21.20;56.10;;;;;;4996329;28;20566;-77
2022/07/18 05:36:34;;;;;;;6.17;1.00;;;21.30;56.00;;;;;;4976157;28;20625;-76
2022/07/18 05:39:00;;;;;;;3.87;1.10;;;21.40;55.80;;;;;;4993375;28;20570;-76
2022/07/18 05:41:26;;;;;;;5.03;0.93;;;21.40;55.60;;;;;;4992886;28;20582;-76
2022/07/18 05:43:52;;;;;;;2.47;0.80;;;21.50;55.50;;;;;;4975785;28;20664;-76
2022/07/18 05:46:18;;;;;;;2.17;1.00;;;21.50;55.40;;;;;;4975421;28;20582;-76
2022/07/18 05:48:44;;;;;;;3.20;0.80;;;21.60;56.10;;;;;;4976036;28;20251;-77
2022/07/18 05:51:10;;;;;;;5.33;1.07;;;21.70;55.40;;;;;;4993303;28;20262;-77
2022/07/18 05:53:36;;;;;;;4.60;0.70;;;21.80;55.50;;;;;;4993318;28;21116;-77
2022/07/18 05:56:02;;;;;;;2.60;0.80;;;22.00;55.60;;;;;;4975470;28;20621;-77
2022/07/18 05:58:28;;;;;;;2.97;1.37;;;22.20;55.80;;;;;;4998319;28;20589;-77
2022/07/18 06:00:53;;;;;;;2.20;0.90;;;22.60;56.00;;;;;;4990691;28;20270;-76
2022/07/18 06:03:19;;;;;;;3.20;0.70;;;23.00;55.90;;;;;;4988273;28;20912;-76
2022/07/18 06:05:45;;;;;;;2.20;0.80;;;23.60;55.70;;;;;;4990956;28;20705;-76
2022/07/18 06:08:19;;;;;;;3.33;0.90;;;24.10;55.50;;;;;;4970198;28;20701;-75
2022/07/18 06:10:53;;;;;;;2.50;0.87;;;24.70;54.90;;;;;;4990833;28;20601;-75
2022/07/18 06:13:36;;;;;;;1.80;0.80;;;25.30;54.10;;;;;;4992385;28;20645;-76
2022/07/18 06:16:10;;;;;;;3.13;0.80;;;26.00;53.10;;;;;;4990427;28;20630;-76
2022/07/18 06:18:41;;;;;;;1.90;1.00;;;26.70;53.40;;;;;;4987916;28;20590;-76
2022/07/18 06:21:11;;;;;;;2.43;0.80;;;27.70;53.40;;;;;;4976127;28;20914;-75
2022/07/18 06:23:42;;;;;;;1.93;0.73;;;28.30;51.70;;;;;;4991878;28;20642;-76
2022/07/18 06:26:14;;;;;;;3.70;0.90;;;28.90;50.50;;;;;;4992258;28;20646;-76
2022/07/18 06:28:48;;;;;;;2.00;0.80;;;29.00;47.40;;;;;;4992047;28;20602;-76
2022/07/18 06:31:19;;;;;;;2.63;0.90;;;29.30;47.00;;;;;;4991174;28;20593;-76
2022/07/18 06:34:04;;;;;;;4.80;0.90;;;29.60;46.40;;;;;;4973345;28;20618;-75
2022/07/18 06:36:37;;;;;;;3.17;0.90;;;29.90;46.50;;;;;;4987793;28;20633;-75
2022/07/18 06:39:18;;;;;;;1.73;0.63;;;30.30;46.10;;;;;;4988013;28;21006;-75
2022/07/18 06:42:00;;;;;;;1.90;0.90;;;30.80;45.60;;;;;;4983470;28;20621;-75
2022/07/18 06:44:34;;;;;;;1.80;0.50;;;31.40;44.60;;;;;;4985939;28;20697;-75
2022/07/18 06:47:08;;;;;;;4.53;0.80;;;31.60;43.10;;;;;;4966767;28;21167;-74
2022/07/18 06:49:35;;;;;;;1.60;0.70;;;32.00;42.30;;;;;;4990209;28;20629;-74
2022/07/18 06:52:14;;;;;;;;;;;;;;;;;;;;;
2022/07/18 06:55:03;;;;;;;2.33;0.80;;;32.20;42.60;;;;;;4992627;28;20665;-74
2022/07/18 06:57:29;;;;;;;4.03;0.80;;;32.30;41.00;;;;;;4982782;28;20594;-74
2022/07/18 07:00:07;;;;;;;2.87;0.80;;;32.40;40.60;;;;;;4991309;28;20935;-74
2022/07/18 07:03:10;;;;;;;1.60;0.60;;;32.50;40.90;;;;;;4957655;28;20643;-74
2022/07/18 07:05:51;;;;;;;1.90;0.70;;;32.80;40.70;;;;;;4984590;28;20625;-74
2022/07/18 07:08:24;;;;;;;1.97;0.60;;;33.20;40.70;;;;;;4988261;28;21154;-74
2022/07/18 07:11:10;;;;;;;3.90;0.80;;;33.80;41.30;;;;;;4993224;28;20592;-74
2022/07/18 07:13:50;;;;;;;3.90;0.90;;;34.30;40.00;;;;;;4989667;28;21007;-74
2022/07/18 07:16:43;;;;;;;2.10;0.70;;;34.70;39.10;;;;;;4991228;28;20643;-74
2022/07/18 07:19:13;;;;;;;5.00;1.00;;;35.00;39.20;;;;;;4992055;28;20570;-75
2022/07/18 07:21:42;;;;;;;2.33;0.60;;;35.00;38.70;;;;;;4991435;28;20934;-75
2022/07/18 07:24:08;;;;;;;4.07;0.80;;;35.30;38.80;;;;;;4991234;28;20577;-75
2022/07/18 07:26:46;;;;;;;2.90;0.70;;;35.50;37.90;;;;;;4986966;28;20620;-76
2022/07/18 07:29:17;;;;;;;2.53;0.63;;;35.70;38.20;;;;;;4979408;28;20586;-76
2022/07/18 07:31:51;;;;;;;2.63;0.70;;;36.10;37.70;;;;;;4992341;28;21036;-77
2022/07/18 07:34:32;;;;;;;3.50;1.20;;;36.20;36.30;;;;;;4988828;28;20586;-76
2022/07/18 07:37:05;;;;;;;1.47;0.60;;;36.00;35.60;;;;;;4991517;28;20594;-77
2022/07/18 07:39:37;;;;;;;2.33;0.70;;;36.00;35.40;;;;;;4974077;28;20566;-76
2022/07/18 07:42:09;;;;;;;4.50;0.87;;;36.10;35.80;;;;;;4991349;28;20606;-76
2022/07/18 07:44:44;;;;;;;2.47;0.93;;;36.60;36.00;;;;;;4978952;28;21017;-76
2022/07/18 07:47:40;;;;;;;3.90;0.83;;;37.30;35.90;;;;;;4992269;28;20967;-74
2022/07/18 07:50:12;;;;;;;4.10;0.80;;;37.30;35.00;;;;;;4992326;28;20582;-76
2022/07/18 07:52:39;;;;;;;6.63;1.00;;;37.60;35.00;;;;;;4994008;28;20976;-76
2022/07/18 07:55:11;;;;;;;2.07;0.80;;;37.80;34.30;;;;;;4992325;28;20718;-75
2022/07/18 07:57:45;;;;;;;2.03;0.70;;;37.80;34.00;;;;;;4995309;28;20632;-75
2022/07/18 08:00:19;;;;;;;4.13;1.00;;;37.90;33.60;;;;;;4979194;28;20673;-76
2022/07/18 08:03:04;;;;;;;1.50;0.70;;;37.90;32.70;;;;;;4995622;28;20972;-76
2022/07/18 08:05:37;;;;;;;3.43;0.77;;;37.80;32.40;;;;;;4977556;28;20619;-76
2022/07/18 08:08:10;;;;;;;2.63;0.80;;;37.80;32.60;;;;;;4977780;28;20918;-75
2022/07/18 08:10:44;;;;;;;2.97;0.90;;;37.80;32.10;;;;;;4994448;28;20680;-75
2022/07/18 08:13:13;;;;;;;3.10;0.60;;;37.90;32.70;;;;;;4994517;28;20621;-76
2022/07/18 08:16:01;;;;;;;2.00;0.70;;;38.10;32.50;;;;;;4994302;28;20633;-74
2022/07/18 08:18:40;;;;;;;2.40;0.70;;;38.10;32.40;;;;;;4993983;28;20569;-74
2022/07/18 08:21:15;;;;;;;3.73;0.73;;;38.30;32.30;;;;;;4979718;28;20743;-75
2022/07/18 08:23:49;;;;;;;1.93;0.70;;;38.50;32.40;;;;;;4995035;28;20970;-75
2022/07/18 08:26:18;;;;;;;2.50;0.70;;;39.00;32.70;;;;;;4976921;28;20582;-74
2022/07/18 08:28:49;;;;;;;2.57;0.80;;;39.30;32.60;;;;;;4974628;28;20587;-74
2022/07/18 08:31:18;;;;;;;1.83;0.60;;;39.90;32.50;;;;;;4973521;28;21067;-74
2022/07/18 08:34:06;;;;;;;3.07;0.80;;;40.50;32.00;;;;;;4974505;28;20583;-74
2022/07/18 08:36:42;;;;;;;1.70;0.80;;;40.80;30.80;;;;;;4976172;28;20626;-74
2022/07/18 08:39:18;;;;;;;1.50;0.80;;;40.80;30.10;;;;;;4974777;28;20567;-75
2022/07/18 08:41:55;;;;;;;4.93;0.80;;;40.90;30.10;;;;;;4958443;28;20571;-75
2022/07/18 08:44:23;;;;;;;8.20;0.90;;;40.90;29.50;;;;;;4985321;28;20609;-75
2022/07/18 08:47:03;;;;;;;3.07;0.70;;;40.90;29.50;;;;;;4994339;28;20622;-73
2022/07/18 08:49:29;;;;;;;1.73;0.70;;;40.80;29.50;;;;;;4976511;28;20576;-74
2022/07/18 08:52:05;;;;;;;2.67;0.73;;;40.60;29.30;;;;;;4993878;28;20609;-74
2022/07/18 08:54:36;;;;;;;2.73;1.27;;;40.60;29.90;;;;;;4993143;28;20669;-74
2022/07/18 08:57:02;;;;;;;2.40;0.70;;;40.80;29.50;;;;;;4993805;28;20665;-74
2022/07/18 08:59:29;;;;;;;2.93;0.70;;;40.50;29.20;;;;;;4993990;28;20569;-74
2022/07/18 09:02:00;;;;;;;2.87;0.80;;;40.60;29.70;;;;;;4993371;28;20613;-74
2022/07/18 09:04:41;;;;;;;1.77;0.73;;;40.90;29.60;;;;;;4976231;28;21156;-75
2022/07/18 09:07:10;;;;;;;2.00;0.90;;;41.20;29.60;;;;;;4993215;28;20597;-75
2022/07/18 09:09:57;;;;;;;1.60;0.70;;;41.50;29.40;;;;;;4978468;28;20669;-76
2022/07/18 09:12:35;;;;;;;5.80;0.80;;;41.80;29.20;;;;;;4993653;28;20640;-75
2022/07/18 09:15:18;;;;;;;2.73;0.80;;;41.70;28.60;;;;;;4989768;28;20642;-75
2022/07/18 09:17:53;;;;;;;4.50;0.70;;;41.80;28.90;;;;;;4991441;28;20582;-75
2022/07/18 09:20:22;;;;;;;2.23;0.87;;;42.00;29.10;;;;;;4991882;28;20574;-75
2022/07/18 09:22:50;;;;;;;10.70;1.77;;;42.00;28.50;;;;;;4992053;28;20609;-75
2022/07/18 09:25:20;;;;;;;6.13;1.20;;;42.00;28.60;;;;;;4992978;28;20577;-75
2022/07/18 09:27:57;;;;;;;2.37;0.70;;;42.20;28.40;;;;;;4992135;28;20593;-75
2022/07/18 09:30:35;;;;;;;3.73;0.80;;;42.30;28.10;;;;;;4992885;28;20574;-76
2022/07/18 09:33:11;;;;;;;1.40;0.70;;;42.30;28.00;;;;;;4993410;28;20609;-76
2022/07/18 09:35:47;;;;;;;4.43;0.70;;;42.30;27.90;;;;;;4992805;28;20636;-75
2022/07/18 09:38:18;;;;;;;4.07;0.83;;;42.50;28.20;;;;;;4993186;28;20608;-75
2022/07/18 09:40:45;;;;;;;2.10;0.63;;;42.80;28.50;;;;;;4975308;28;20571;-75
2022/07/18 09:43:18;;;;;;;2.20;0.70;;;43.20;28.00;;;;;;4995513;28;20721;-75
2022/07/18 09:45:56;;;;;;;2.60;0.70;;;43.20;27.60;;;;;;4994437;28;20594;-75
2022/07/18 09:48:27;;;;;;;4.70;0.70;;;43.40;27.50;;;;;;4993477;28;20574;-76
2022/07/18 09:50:59;;;;;;;3.00;0.60;;;43.80;28.10;;;;;;4992855;28;20585;-76
2022/07/18 09:53:44;;;;;;;4.70;0.90;;;44.20;27.70;;;;;;4992719;28;20609;-75
2022/07/18 09:56:42;;;;;;;5.83;0.80;;;44.50;27.00;;;;;;4992294;28;20672;-74
2022/07/18 09:59:16;;;;;;;4.80;0.70;;;44.60;26.80;;;;;;4993012;28;20585;-75
2022/07/18 10:01:42;;;;;;;2.17;0.70;;;44.80;26.60;;;;;;4997835;28;20574;-79
2022/07/18 10:04:08;;;;;;;1.40;0.50;;;44.90;26.40;;;;;;4986522;28;20600;-79
2022/07/18 10:06:34;;;;;;;4.17;0.80;;;45.10;26.60;;;;;;5002548;28;20250;-78
2022/07/18 10:09:01;;;;;;;4.07;0.70;;;45.30;26.20;;;;;;4988475;28;20238;-79
2022/07/18 10:11:27;;;;;;;2.00;0.70;;;45.60;27.10;;;;;;4997944;28;20594;-79
2022/07/18 10:13:54;;;;;;;1.20;0.60;;;45.80;25.90;;;;;;4997294;28;20724;-78
2022/07/18 10:16:20;;;;;;;2.17;0.80;;;45.60;25.70;;;;;;4991537;28;20265;-79
2022/07/18 10:18:45;;;;;;;2.73;0.67;;;45.60;25.60;;;;;;4996025;28;21170;-79
2022/07/18 10:21:12;;;;;;;2.40;0.60;;;45.70;25.40;;;;;;5001950;28;20184;-80
2022/07/18 10:23:40;;;;;;;1.50;0.70;;;45.80;25.20;;;;;;4997323;28;20207;-79
2022/07/18 10:26:22;;;;;;;1.63;0.70;;;45.90;25.10;;;;;;4990704;28;20686;-80
2022/07/18 10:28:58;;;;;;;2.23;0.73;;;46.10;25.40;;;;;;4944092;28;20998;-79
2022/07/18 10:31:37;;;;;;;3.00;0.90;;;45.90;24.50;;;;;;4978755;28;20593;-80
2022/07/18 10:34:15;;;;;;;2.80;0.80;;;45.60;23.80;;;;;;4963063;28;20569;-81
2022/07/18 10:37:06;;;;;;;2.97;0.60;;;45.70;24.50;;;;;;4973555;28;20602;-80
2022/07/18 10:39:32;;;;;;;2.20;0.70;;;45.80;25.00;;;;;;4957860;28;20581;-81
2022/07/18 10:41:58;;;;;;;1.30;0.60;;;46.00;24.60;;;;;;4971973;28;20602;-81
2022/07/18 10:44:31;;;;;;;2.33;0.73;;;46.10;24.20;;;;;;4951468;28;20644;-80
2022/07/18 10:47:09;;;;;;;1.30;0.70;;;46.10;24.20;;;;;;4995379;28;20195;-80
2022/07/18 10:49:48;;;;;;;1.40;0.70;;;46.20;23.90;;;;;;4992689;28;21267;-80
2022/07/18 10:52:28;;;;;;;1.40;0.60;;;46.10;22.60;;;;;;4960173;28;20640;-79
2022/07/18 10:57:38;;;;;;;3.23;0.87;;;45.10;22.80;;;;;;4978156;28;20683;-80
2022/07/18 11:00:11;;;;;;;1.30;0.63;;;44.50;22.30;;;;;;4958956;28;20926;-80
2022/07/18 11:02:45;;;;;;;1.90;0.70;;;43.80;22.60;;;;;;4967075;28;20614;-80
2022/07/18 11:05:23;;;;;;;1.60;0.70;;;43.40;22.90;;;;;;4986718;28;20660;-80
2022/07/18 11:08:01;;;;;;;2.40;0.70;;;43.30;23.00;;;;;;4979769;28;20566;-80
2022/07/18 11:10:51;;;;;;;1.50;0.80;;;43.30;23.90;;;;;;4992553;28;20986;-81
2022/07/18 11:13:28;;;;;;;1.20;0.70;;;43.30;23.10;;;;;;4976149;28;20626;-81
2022/07/18 11:16:09;;;;;;;1.70;0.70;;;43.20;23.40;;;;;;4964367;28;20606;-81
2022/07/18 11:18:44;;;;;;;1.33;0.60;;;43.30;23.90;;;;;;4994038;28;20593;-81
2022/07/18 11:21:47;;;;;;;4.80;0.60;;;43.40;24.30;;;;;;4991811;28;20585;-79
2022/07/18 11:24:13;;;;;;;1.57;0.60;;;43.50;23.90;;;;;;4911892;29;20667;-80
2022/07/18 11:26:44;;;;;;;1.70;0.80;;;43.40;23.30;;;;;;4959933;28;20825;-80
2022/07/18 11:29:13;;;;;;;1.30;0.60;;;43.10;23.50;;;;;;4974303;28;20589;-79
2022/07/18 11:31:57;;;;;;;2.03;0.60;;;43.00;23.50;;;;;;4994439;28;20919;-79
2022/07/18 11:34:24;;;;;;;1.40;0.60;;;42.90;23.50;;;;;;4980241;28;20566;-79
2022/07/18 11:36:50;;;;;;;2.07;0.80;;;42.60;23.20;;;;;;5002719;28;20573;-79
2022/07/18 11:39:31;;;;;;;1.87;0.60;;;42.40;23.70;;;;;;4967755;28;20573;-80
2022/07/18 11:41:57;;;;;;;2.57;0.80;;;42.40;24.00;;;;;;4997179;28;20597;-80
2022/07/18 11:44:26;;;;;;;1.63;0.60;;;42.50;24.30;;;;;;4994358;28;20577;-80
2022/07/18 11:47:10;;;;;;;3.17;0.90;;;42.60;23.70;;;;;;4994800;28;20199;-80
2022/07/18 11:49:37;;;;;;;2.70;0.70;;;42.50;23.70;;;;;;4995335;28;20920;-80
2022/07/18 11:52:04;;;;;;;2.43;0.70;;;42.50;24.10;;;;;;4978747;28;20765;-80
2022/07/18 11:54:32;;;;;;;1.50;0.60;;;42.50;24.00;;;;;;4978862;28;20589;-78
2022/07/18 11:57:00;;;;;;;1.93;0.70;;;42.60;23.80;;;;;;4998713;28;20600;-80
2022/07/18 11:59:39;;;;;;;2.03;0.70;;;42.50;24.00;;;;;;4999770;28;20577;-80
2022/07/18 12:02:06;;;;;;;1.80;0.80;;;42.50;24.40;;;;;;4966703;28;20606;-80
2022/07/18 12:04:32;;;;;;;1.93;0.83;;;42.60;24.20;;;;;;4996510;28;20669;-79
2022/07/18 12:07:30;;;;;;;1.80;0.70;;;42.60;24.10;;;;;;4966335;28;20590;-79
2022/07/18 12:09:56;;;;;;;2.40;0.70;;;42.60;24.30;;;;;;4965967;28;20693;-79
2022/07/18 12:12:23;;;;;;;2.00;0.70;;;42.80;24.30;;;;;;4998898;28;20641;-79
2022/07/18 12:14:59;;;;;;;2.47;0.80;;;42.80;24.10;;;;;;4999105;28;20182;-80
2022/07/18 12:17:25;;;;;;;1.60;0.60;;;42.90;24.10;;;;;;4998591;28;20943;-75
2022/07/18 12:19:52;;;;;;;2.07;0.70;;;42.90;23.70;;;;;;4992929;28;20566;-75
2022/07/18 12:22:17;;;;;;;2.17;0.80;;;42.70;24.00;;;;;;4994695;28;20602;-75
2022/07/18 12:24:49;;;;;;;1.73;0.70;;;42.60;24.20;;;;;;4973610;28;20612;-75
2022/07/18 12:27:19;;;;;;;2.80;0.90;;;42.60;24.30;;;;;;4994463;28;20170;-76
2022/07/18 12:29:55;;;;;;;2.60;1.10;;;42.60;24.20;;;;;;4993801;28;20566;-75
2022/07/18 12:32:27;;;;;;;3.20;0.77;;;42.60;24.50;;;;;;4993309;28;20597;-76
2022/07/18 12:34:57;;;;;;;5.40;0.90;;;42.50;24.10;;;;;;4993998;28;20566;-76
2022/07/18 12:37:25;;;;;;;2.07;0.63;;;42.50;24.30;;;;;;4994830;28;20629;-76
2022/07/18 12:39:57;;;;;;;1.30;0.60;;;42.40;24.20;;;;;;4976388;28;20576;-75
2022/07/18 12:42:31;;;;;;;1.50;0.60;;;42.30;24.30;;;;;;4994333;28;20614;-76
2022/07/18 12:44:57;;;;;;;1.40;0.60;;;42.20;24.30;;;;;;4993497;28;20719;-76
2022/07/18 12:47:23;;;;;;;1.90;0.70;;;42.00;24.10;;;;;;4995883;28;20622;-76
2022/07/18 12:49:49;;;;;;;4.43;0.80;;;41.80;24.00;;;;;;4993290;28;21280;-76
2022/07/18 12:52:15;;;;;;;2.13;0.80;;;41.50;24.00;;;;;;4989169;28;20227;-76
2022/07/18 12:54:40;;;;;;;2.80;1.03;;;41.20;23.70;;;;;;4997948;28;20206;-75
2022/07/18 12:57:06;;;;;;;2.53;0.90;;;40.90;23.70;;;;;;4993721;28;20197;-76
2022/07/18 12:59:32;;;;;;;1.70;0.70;;;40.40;23.70;;;;;;4993710;28;20238;-76
2022/07/18 13:01:58;;;;;;;1.50;0.70;;;40.00;23.70;;;;;;4975499;28;20685;-76
2022/07/18 13:04:23;;;;;;;1.90;0.70;;;39.60;23.80;;;;;;4993203;28;20762;-76
2022/07/18 13:06:49;;;;;;;2.60;1.03;;;39.30;24.00;;;;;;4993509;28;20214;-75
2022/07/18 13:09:15;;;;;;;1.80;0.90;;;38.90;24.10;;;;;;4993645;28;20515;-75